Terminal Aerodrome Forecast
Issued by NWS Pocatello, ID

Home | Current Version | Previous Version | Text Only | Print | Product List | Glossary On
Versions: 1 2 3 4 5 6 7 8 9 10 11 12 13 14 15 16
000
FTUS45 KPIH 212300
TAFBYI
TAF
KBYI 212320Z 2200/2224 18015G25KT P6SM VCTS SCT060CB BKN100 BKN180
     FM220100 25008KT P6SM VCTS FEW050CB BKN100 BKN180
     FM220300 21006KT P6SM BKN100 BKN180
     FM220600 VRB05KT P6SM -SHRA SCT080 BKN100 OVC180
     FM221800 VRB05KT P6SM -SHRA VCTS SCT080CB BKN160=

USA.gov is the U.S. government's official web portal to all federal, state and local government web resources and services.